createdAt,value
2016-09-17T00:00:12.166Z,0
2016-09-17T00:01:11.882Z,0
2016-09-17T00:02:11.902Z,0
2016-09-17T00:03:11.932Z,0
2016-09-17T00:04:11.950Z,0
2016-09-17T00:05:11.979Z,0
2016-09-17T00:06:12.011Z,0
2016-09-17T00:07:12.027Z,0
2016-09-17T00:08:12.053Z,0
2016-09-17T00:09:12.081Z,0
2016-09-17T00:10:12.103Z,0
2016-09-17T00:11:12.139Z,0
2016-09-17T00:12:12.163Z,0
2016-09-17T00:13:12.499Z,0
2016-09-17T00:14:12.215Z,0
2016-09-17T00:15:12.224Z,0
2016-09-17T00:16:12.274Z,0
2016-09-17T00:17:12.273Z,0
2016-09-17T00:18:12.307Z,0
2016-09-17T00:19:12.329Z,0
2016-09-17T00:20:12.368Z,0
2016-09-17T00:21:12.377Z,0
2016-09-17T00:22:12.403Z,0
2016-09-17T00:23:12.431Z,0
2016-09-17T00:24:12.454Z,0
2016-09-17T00:25:12.791Z,0
2016-09-17T00:26:12.506Z,0
2016-09-17T00:27:12.839Z,0
2016-09-17T00:28:12.563Z,0
2016-09-17T00:29:12.589Z,0
2016-09-17T00:30:12.604Z,0
2016-09-17T00:31:12.632Z,0
2016-09-17T00:32:12.654Z,0
2016-09-17T00:33:12.687Z,0
2016-09-17T00:34:12.704Z,0
2016-09-17T00:35:13.237Z,0
2016-09-17T00:36:12.754Z,0
2016-09-17T00:37:12.782Z,0
2016-09-17T00:38:12.816Z,0
2016-09-17T00:39:12.837Z,0
2016-09-17T00:40:12.862Z,0
2016-09-17T00:41:12.909Z,0
2016-09-17T00:42:12.910Z,0
2016-09-17T00:43:13.049Z,0
2016-09-17T00:44:13.052Z,0
2016-09-17T00:45:13.213Z,0
2016-09-17T00:46:13.224Z,0
2016-09-17T00:47:13.244Z,0
2016-09-17T00:48:13.242Z,0
2016-09-17T00:49:13.241Z,0
2016-09-17T00:50:13.462Z,0
2016-09-17T00:51:13.254Z,0
2016-09-17T00:52:13.271Z,0
2016-09-17T00:53:13.276Z,0
2016-09-17T00:54:13.413Z,0
2016-09-17T00:55:13.421Z,0
2016-09-17T00:56:13.342Z,0
2016-09-17T00:57:13.389Z,0
2016-09-17T00:58:13.385Z,0
2016-09-17T00:59:14.234Z,0
2016-09-17T01:00:13.424Z,0
2016-09-17T01:01:13.443Z,0
2016-09-17T01:02:13.431Z,0
2016-09-17T01:03:13.761Z,0
2016-09-17T01:04:13.463Z,0
2016-09-17T01:05:13.482Z,0
2016-09-17T01:06:13.525Z,0
2016-09-17T01:07:13.527Z,0
2016-09-17T01:08:13.567Z,0
2016-09-17T01:09:13.585Z,0
2016-09-17T01:10:13.603Z,0
2016-09-17T01:11:13.646Z,0
2016-09-17T01:12:13.655Z,0
2016-09-17T01:13:13.685Z,0
2016-09-17T01:14:13.719Z,0
2016-09-17T01:15:13.733Z,0
2016-09-17T01:16:13.758Z,0
2016-09-17T01:17:13.777Z,0
2016-09-17T01:18:13.815Z,0
2016-09-17T01:19:13.843Z,0
2016-09-17T01:20:13.857Z,0
2016-09-17T01:21:13.882Z,0
2016-09-17T01:22:13.914Z,0
2016-09-17T01:23:13.932Z,0
2016-09-17T01:24:13.954Z,0
2016-09-17T01:25:13.989Z,0
2016-09-17T01:26:14.004Z,0
2016-09-17T01:27:14.130Z,0
2016-09-17T01:28:14.151Z,0
2016-09-17T01:29:14.155Z,0
2016-09-17T01:30:14.163Z,0
2016-09-17T01:31:14.171Z,0
2016-09-17T01:32:14.182Z,0
2016-09-17T01:33:14.179Z,0
2016-09-17T01:34:14.209Z,0
2016-09-17T01:35:14.243Z,0
2016-09-17T01:36:14.256Z,0
2016-09-17T01:37:14.302Z,0
2016-09-17T01:38:14.300Z,0
2016-09-17T01:39:14.345Z,0
2016-09-17T01:40:14.357Z,0
2016-09-17T01:41:14.382Z,0
2016-09-17T01:42:14.406Z,0
2016-09-17T01:43:14.426Z,0
2016-09-17T01:44:14.477Z,0
2016-09-17T01:45:14.480Z,0
2016-09-17T01:46:14.508Z,0
2016-09-17T01:47:14.526Z,0
2016-09-17T01:48:14.554Z,0
2016-09-17T01:49:14.589Z,0
2016-09-17T01:50:14.605Z,0
2016-09-17T01:51:14.637Z,0
2016-09-17T01:52:14.652Z,0
2016-09-17T01:53:14.684Z,0
2016-09-17T01:54:14.700Z,0
2016-09-17T01:55:14.745Z,0
2016-09-17T01:56:14.755Z,0
2016-09-17T01:57:14.780Z,0
2016-09-17T01:58:14.806Z,0
2016-09-17T01:59:14.829Z,0
2016-09-17T02:00:14.856Z,0
2016-09-17T02:01:14.875Z,0
2016-09-17T02:02:14.915Z,0
2016-09-17T02:03:14.933Z,0
2016-09-17T02:04:14.958Z,0
2016-09-17T02:05:14.978Z,0
2016-09-17T02:06:15.316Z,0
2016-09-17T02:07:15.030Z,0
2016-09-17T02:08:15.044Z,0
2016-09-17T02:09:15.075Z,0
2016-09-17T02:10:15.110Z,0
2016-09-17T02:11:15.125Z,0
2016-09-17T02:12:15.158Z,0
2016-09-17T02:13:15.170Z,0
2016-09-17T02:14:15.204Z,0
2016-09-17T02:15:15.227Z,0
2016-09-17T02:16:15.247Z,0
2016-09-17T02:17:15.287Z,0
2016-09-17T02:18:15.299Z,0
2016-09-17T02:19:15.327Z,0
2016-09-17T02:20:15.347Z,0
2016-09-17T02:21:15.378Z,0
2016-09-17T02:22:15.386Z,0
2016-09-17T02:23:15.426Z,0
2016-09-17T02:24:15.462Z,0
2016-09-17T02:25:15.466Z,0
2016-09-17T02:26:15.494Z,0
2016-09-17T02:27:15.524Z,0
2016-09-17T02:28:15.540Z,0
2016-09-17T02:29:15.564Z,0
2016-09-17T02:30:15.594Z,0
2016-09-17T02:31:15.631Z,0
2016-09-17T02:32:15.645Z,0
2016-09-17T02:33:15.779Z,0
2016-09-17T02:34:15.785Z,0
2016-09-17T02:35:15.826Z,0
2016-09-17T02:36:15.945Z,0
2016-09-17T02:37:15.891Z,0
2016-09-17T02:38:15.946Z,0
2016-09-17T02:39:15.962Z,0
2016-09-17T02:40:15.970Z,0
2016-09-17T02:41:15.974Z,0
2016-09-17T02:42:15.985Z,0
2016-09-17T02:43:16.227Z,0
2016-09-17T02:44:16.131Z,0
2016-09-17T02:45:16.144Z,0
2016-09-17T02:46:16.152Z,0
2016-09-17T02:47:16.159Z,0
2016-09-17T02:48:16.156Z,0
2016-09-17T02:49:16.133Z,0
2016-09-17T02:50:16.144Z,0
2016-09-17T02:51:16.148Z,0
2016-09-17T02:52:16.149Z,0
2016-09-17T02:53:16.161Z,0
2016-09-17T02:54:16.192Z,0
2016-09-17T02:55:16.217Z,0
2016-09-17T02:56:16.555Z,0
2016-09-17T02:57:16.266Z,0
2016-09-17T02:58:16.282Z,0
2016-09-17T02:59:16.314Z,0
2016-09-17T03:00:16.337Z,0
2016-09-17T03:01:16.360Z,0
2016-09-17T03:02:16.378Z,0
2016-09-17T03:03:16.408Z,0
2016-09-17T03:04:16.431Z,0
2016-09-17T03:05:16.459Z,0
2016-09-17T03:06:16.488Z,0
2016-09-17T03:07:16.503Z,0
2016-09-17T03:08:16.537Z,0
2016-09-17T03:09:16.552Z,0
2016-09-17T03:10:16.582Z,0
2016-09-17T03:11:16.629Z,0
2016-09-17T03:12:16.629Z,0
2016-09-17T03:13:16.653Z,0
2016-09-17T03:14:16.672Z,0
2016-09-17T03:15:16.707Z,0
2016-09-17T03:16:16.722Z,0
2016-09-17T03:17:16.751Z,0
2016-09-17T03:18:16.798Z,0
2016-09-17T03:19:16.801Z,0
2016-09-17T03:20:16.829Z,0
2016-09-17T03:21:16.855Z,0
2016-09-17T03:22:16.876Z,0
2016-09-17T03:23:17.209Z,0
2016-09-17T03:24:16.923Z,0
2016-09-17T03:25:16.952Z,0
2016-09-17T03:26:16.980Z,0
2016-09-17T03:27:17.000Z,0
2016-09-17T03:28:17.068Z,0
2016-09-17T03:29:17.044Z,0
2016-09-17T03:30:17.078Z,0
2016-09-17T03:31:17.091Z,0
2016-09-17T03:32:17.119Z,0
2016-09-17T03:33:17.151Z,0
2016-09-17T03:34:17.171Z,0
2016-09-17T03:35:17.203Z,0
2016-09-17T03:36:17.224Z,0
2016-09-17T03:37:17.240Z,0
2016-09-17T03:38:17.267Z,0
2016-09-17T03:39:17.289Z,0
2016-09-17T03:40:17.627Z,0
2016-09-17T03:41:17.347Z,0
2016-09-17T03:42:17.364Z,0
2016-09-17T03:43:17.389Z,0
2016-09-17T03:44:17.410Z,0
2016-09-17T03:45:17.435Z,0
2016-09-17T03:46:17.463Z,0
2016-09-17T03:47:17.490Z,0
2016-09-17T03:48:17.530Z,0
2016-09-17T03:49:17.531Z,0
2016-09-17T03:50:17.564Z,0
2016-09-17T03:51:17.591Z,0
2016-09-17T03:52:17.603Z,0
2016-09-17T03:53:18.035Z,0
2016-09-17T03:54:17.653Z,0
2016-09-17T03:55:17.680Z,0
2016-09-17T03:56:17.704Z,0
2016-09-17T03:57:17.850Z,0
2016-09-17T03:58:17.856Z,0
2016-09-17T03:59:17.866Z,0
2016-09-17T04:00:18.047Z,0
2016-09-17T04:01:18.057Z,0
2016-09-17T04:02:18.061Z,0
2016-09-17T04:03:18.069Z,0
2016-09-17T04:04:18.083Z,0
2016-09-17T04:05:18.120Z,0
2016-09-17T04:06:18.122Z,0
2016-09-17T04:07:18.179Z,0
2016-09-17T04:08:18.147Z,0
2016-09-17T04:09:18.150Z,0
2016-09-17T04:10:18.163Z,0
2016-09-17T04:11:18.160Z,0
2016-09-17T04:12:18.167Z,0
2016-09-17T04:13:18.217Z,0
2016-09-17T04:14:18.225Z,0
2016-09-17T04:15:18.262Z,0
2016-09-17T04:16:18.252Z,0
2016-09-17T04:17:18.266Z,0
2016-09-17T04:18:18.277Z,0
2016-09-17T04:19:18.259Z,0
2016-09-17T04:20:18.312Z,0
2016-09-17T04:21:18.316Z,0
2016-09-17T04:22:18.349Z,0
2016-09-17T04:23:18.371Z,0
2016-09-17T04:24:18.404Z,0
2016-09-17T04:25:18.423Z,0
2016-09-17T04:26:18.437Z,0
2016-09-17T04:27:18.458Z,0
2016-09-17T04:28:18.480Z,0
2016-09-17T04:29:18.520Z,0
2016-09-17T04:30:18.535Z,0
2016-09-17T04:31:18.564Z,0
2016-09-17T04:32:18.586Z,0
2016-09-17T04:33:18.606Z,0
2016-09-17T04:34:18.630Z,0
2016-09-17T04:35:18.667Z,0
2016-09-17T04:36:18.682Z,0
2016-09-17T04:37:18.710Z,0
2016-09-17T04:38:18.738Z,0
2016-09-17T04:39:18.761Z,0
2016-09-17T04:40:18.777Z,0
2016-09-17T04:41:18.806Z,0
2016-09-17T04:42:19.134Z,0
2016-09-17T04:43:18.853Z,0
2016-09-17T04:44:18.876Z,0
2016-09-17T04:45:18.907Z,0
2016-09-17T04:46:18.920Z,0
2016-09-17T04:47:18.954Z,0
2016-09-17T04:48:18.975Z,0
2016-09-17T04:49:18.994Z,0
2016-09-17T04:50:19.025Z,0
2016-09-17T04:51:19.048Z,0
2016-09-17T04:52:19.073Z,0
2016-09-17T04:53:19.098Z,0
2016-09-17T04:54:19.128Z,0
2016-09-17T04:55:19.135Z,0
2016-09-17T04:56:19.173Z,0
2016-09-17T04:57:19.191Z,0
2016-09-17T04:58:19.225Z,0
2016-09-17T04:59:19.233Z,0
2016-09-17T05:00:19.266Z,0
2016-09-17T05:01:19.298Z,0
2016-09-17T05:02:19.317Z,0
2016-09-17T05:03:19.341Z,0
2016-09-17T05:04:19.365Z,0
2016-09-17T05:05:19.389Z,0
2016-09-17T05:06:19.412Z,0
2016-09-17T05:07:19.754Z,0
2016-09-17T05:08:19.464Z,0
2016-09-17T05:09:19.483Z,0
2016-09-17T05:10:19.820Z,0
2016-09-17T05:11:19.531Z,0
2016-09-17T05:12:19.557Z,0
2016-09-17T05:13:19.654Z,0
2016-09-17T05:14:19.625Z,0
2016-09-17T05:15:19.630Z,0
2016-09-17T05:16:19.655Z,0
2016-09-17T05:17:19.678Z,0
2016-09-17T05:18:19.705Z,0
2016-09-17T05:19:19.745Z,0
2016-09-17T05:20:19.765Z,0
2016-09-17T05:21:19.882Z,0
2016-09-17T05:22:20.036Z,0
2016-09-17T05:23:20.048Z,0
2016-09-17T05:24:20.064Z,0
2016-09-17T05:25:20.052Z,0
2016-09-17T05:26:20.063Z,0
2016-09-17T05:27:20.073Z,0
2016-09-17T05:28:20.086Z,0
2016-09-17T05:29:20.092Z,0
2016-09-17T05:30:20.088Z,0
2016-09-17T05:31:20.246Z,0
2016-09-17T05:32:20.248Z,0
2016-09-17T05:33:20.321Z,0
2016-09-17T05:34:20.271Z,0
2016-09-17T05:35:20.210Z,0
2016-09-17T05:36:20.213Z,0
2016-09-17T05:37:20.245Z,0
2016-09-17T05:38:20.184Z,0
2016-09-17T05:39:20.213Z,0
2016-09-17T05:40:20.229Z,0
2016-09-17T05:41:20.259Z,0
2016-09-17T05:42:20.317Z,0
2016-09-17T05:43:20.315Z,0
2016-09-17T05:44:20.348Z,0
2016-09-17T05:45:20.352Z,0
2016-09-17T05:46:20.390Z,0
2016-09-17T05:47:20.415Z,0
2016-09-17T05:48:20.434Z,0
2016-09-17T05:49:20.903Z,0
2016-09-17T05:50:20.478Z,0
2016-09-17T05:51:20.545Z,0
2016-09-17T05:52:20.531Z,0
2016-09-17T05:53:20.908Z,0
2016-09-17T05:54:20.570Z,0
2016-09-17T05:55:20.623Z,0
2016-09-17T05:56:20.622Z,0
2016-09-17T05:57:20.965Z,0
2016-09-17T05:58:20.689Z,0
2016-09-17T05:59:20.696Z,0
2016-09-17T06:00:20.838Z,0
2016-09-17T06:01:20.833Z,0
2016-09-17T06:02:20.881Z,0
2016-09-17T06:03:20.883Z,0
2016-09-17T06:04:21.253Z,0
2016-09-17T06:05:20.952Z,0
2016-09-17T06:06:21.003Z,0
2016-09-17T06:07:21.082Z,0
2016-09-17T06:08:21.026Z,0
2016-09-17T06:09:21.098Z,0
2016-09-17T06:10:21.122Z,0
2016-09-17T06:11:21.131Z,0
2016-09-17T06:12:21.131Z,0
2016-09-17T06:13:21.154Z,0
2016-09-17T06:14:21.170Z,0
2016-09-17T06:15:21.213Z,0
2016-09-17T06:16:21.220Z,0
2016-09-17T06:17:21.242Z,0
2016-09-17T06:18:21.272Z,0
2016-09-17T06:19:21.244Z,0
2016-09-17T06:20:21.254Z,0
2016-09-17T06:21:21.265Z,0
2016-09-17T06:22:21.264Z,0
2016-09-17T06:23:21.280Z,0
2016-09-17T06:24:21.308Z,0
2016-09-17T06:25:21.331Z,0
2016-09-17T06:26:21.351Z,0
2016-09-17T06:27:21.376Z,0
2016-09-17T06:28:21.407Z,0
2016-09-17T06:29:21.431Z,0
2016-09-17T06:30:21.449Z,0
2016-09-17T06:31:21.638Z,0
2016-09-17T06:32:21.901Z,0
2016-09-17T06:33:21.634Z,0
2016-09-17T06:34:21.555Z,0
2016-09-17T06:35:21.584Z,0
2016-09-17T06:36:21.591Z,0
2016-09-17T06:37:21.636Z,0
2016-09-17T06:38:21.647Z,0
2016-09-17T06:39:21.676Z,0
2016-09-17T06:40:21.840Z,0
2016-09-17T06:41:21.714Z,0
2016-09-17T06:42:21.743Z,0
2016-09-17T06:43:21.759Z,0
2016-09-17T06:44:21.782Z,0
2016-09-17T06:45:21.816Z,0
2016-09-17T06:46:21.839Z,0
2016-09-17T06:47:21.872Z,0
2016-09-17T06:48:21.887Z,0
2016-09-17T06:49:21.903Z,0
2016-09-17T06:50:21.935Z,0
2016-09-17T06:51:22.021Z,0
2016-09-17T06:52:21.987Z,0
2016-09-17T06:53:22.004Z,0
2016-09-17T06:54:22.023Z,0
2016-09-17T06:55:22.061Z,0
2016-09-17T06:56:22.086Z,0
2016-09-17T06:57:22.109Z,0
2016-09-17T06:58:22.137Z,0
2016-09-17T06:59:22.163Z,0
2016-09-17T07:00:22.490Z,0
2016-09-17T07:01:22.200Z,0
2016-09-17T07:02:22.229Z,0
2016-09-17T07:03:22.252Z,0
2016-09-17T07:04:22.265Z,0
2016-09-17T07:05:22.299Z,0
2016-09-17T07:06:22.317Z,0
2016-09-17T07:07:22.611Z,0
2016-09-17T07:08:22.386Z,0
2016-09-17T07:09:22.391Z,0
2016-09-17T07:10:22.416Z,0
2016-09-17T07:11:22.440Z,0
2016-09-17T07:12:22.781Z,0
2016-09-17T07:13:22.486Z,0
2016-09-17T07:14:22.510Z,0
2016-09-17T07:15:22.536Z,0
2016-09-17T07:16:22.571Z,0
2016-09-17T07:17:22.586Z,0
2016-09-17T07:18:22.614Z,0
2016-09-17T07:19:22.742Z,0
2016-09-17T07:20:22.778Z,5
2016-09-17T07:21:22.911Z,5
2016-09-17T07:22:22.914Z,5
2016-09-17T07:23:22.928Z,0
2016-09-17T07:24:22.930Z,5
2016-09-17T07:25:22.935Z,5
2016-09-17T07:26:22.943Z,5
2016-09-17T07:27:22.948Z,0
2016-09-17T07:28:22.953Z,5
2016-09-17T07:29:22.989Z,5
2016-09-17T07:30:23.392Z,5
2016-09-17T07:31:23.118Z,0
2016-09-17T07:32:23.116Z,0
2016-09-17T07:33:23.062Z,0
2016-09-17T07:34:23.070Z,0
2016-09-17T07:35:23.432Z,5
2016-09-17T07:36:23.109Z,0
2016-09-17T07:37:23.135Z,0
2016-09-17T07:38:23.127Z,0
2016-09-17T07:39:23.139Z,0
2016-09-17T07:40:23.152Z,0
2016-09-17T07:41:23.168Z,5
2016-09-17T07:42:23.188Z,0
2016-09-17T07:43:23.531Z,0
2016-09-17T07:44:23.228Z,0
2016-09-17T07:45:23.287Z,0
2016-09-17T07:46:23.290Z,0
2016-09-17T07:47:23.317Z,5
2016-09-17T07:48:23.335Z,5
2016-09-17T07:49:23.358Z,5
2016-09-17T07:50:23.381Z,5
2016-09-17T07:51:23.467Z,0
2016-09-17T07:52:23.433Z,0
2016-09-17T07:53:23.461Z,5
2016-09-17T07:54:23.475Z,5
2016-09-17T07:55:23.505Z,5
2016-09-17T07:56:23.532Z,5
2016-09-17T07:57:23.555Z,5
2016-09-17T07:58:23.575Z,5
2016-09-17T07:59:23.603Z,5
2016-09-17T08:00:23.645Z,5
2016-09-17T08:01:23.649Z,5
2016-09-17T08:02:23.683Z,5
2016-09-17T08:03:23.702Z,5
2016-09-17T08:04:24.044Z,5
2016-09-17T08:05:24.063Z,10
2016-09-17T08:07:23.798Z,10
2016-09-17T08:08:23.826Z,10
2016-09-17T08:09:23.847Z,10
2016-09-17T08:10:23.872Z,10
2016-09-17T08:11:24.215Z,10
2016-09-17T08:12:23.911Z,5
2016-09-17T08:13:23.938Z,10
2016-09-17T08:14:23.982Z,10
2016-09-17T08:15:24.399Z,5
2016-09-17T08:16:24.010Z,5
2016-09-17T08:17:24.036Z,10
2016-09-17T08:18:24.059Z,10
2016-09-17T08:19:24.093Z,10
2016-09-17T08:20:24.474Z,15
2016-09-17T08:21:24.184Z,15
2016-09-17T08:22:24.192Z,15
2016-09-17T08:23:24.192Z,15
2016-09-17T08:24:24.325Z,15
2016-09-17T08:25:24.232Z,15
2016-09-17T08:26:24.259Z,15
2016-09-17T08:27:24.280Z,15
2016-09-17T08:28:24.307Z,15
2016-09-17T08:29:24.330Z,15
2016-09-17T08:30:24.355Z,10
2016-09-17T08:31:24.389Z,10
2016-09-17T08:32:24.414Z,10
2016-09-17T08:33:24.428Z,10
2016-09-17T08:34:24.462Z,10
2016-09-17T08:35:24.576Z,10
2016-09-17T08:36:24.603Z,10
2016-09-17T08:37:24.759Z,10
2016-09-17T08:38:24.778Z,10
2016-09-17T08:39:24.777Z,5
2016-09-17T08:40:24.684Z,5
2016-09-17T08:41:25.142Z,5
2016-09-17T08:42:24.831Z,5
2016-09-17T08:43:24.842Z,5
2016-09-17T08:44:24.859Z,5
2016-09-17T08:45:24.860Z,10
2016-09-17T08:46:24.873Z,5
2016-09-17T08:47:24.866Z,5
2016-09-17T08:48:24.873Z,5
2016-09-17T08:49:24.891Z,5
2016-09-17T08:50:24.935Z,5
2016-09-17T08:51:25.182Z,5
2016-09-17T08:52:24.886Z,5
2016-09-17T08:53:24.915Z,5
2016-09-17T08:54:24.944Z,10
2016-09-17T08:55:24.963Z,5
2016-09-17T08:56:24.984Z,5
2016-09-17T08:57:25.012Z,5
2016-09-17T08:58:25.041Z,10
2016-09-17T08:59:25.065Z,10
2016-09-17T09:00:25.090Z,5
2016-09-17T09:01:25.115Z,5
2016-09-17T09:02:25.140Z,5
2016-09-17T09:03:25.157Z,5
2016-09-17T09:04:25.177Z,5
2016-09-17T09:05:25.525Z,5
2016-09-17T09:06:25.233Z,5
2016-09-17T09:07:25.565Z,5
2016-09-17T09:08:25.287Z,5
2016-09-17T09:09:25.311Z,5
2016-09-17T09:10:25.329Z,5
2016-09-17T09:11:25.357Z,5
2016-09-17T09:12:25.379Z,0
2016-09-17T09:13:25.416Z,0
2016-09-17T09:14:25.431Z,5
2016-09-17T09:15:25.453Z,0
2016-09-17T09:16:25.474Z,0
2016-09-17T09:17:25.502Z,0
2016-09-17T09:18:25.519Z,0
2016-09-17T09:19:25.550Z,0
2016-09-17T09:20:25.564Z,0
2016-09-17T09:21:25.597Z,5
2016-09-17T09:22:25.618Z,5
2016-09-17T09:23:25.650Z,10
2016-09-17T09:24:25.682Z,10
2016-09-17T09:25:25.698Z,10
2016-09-17T09:26:25.719Z,10
2016-09-17T09:27:26.056Z,10
2016-09-17T09:28:25.777Z,5
2016-09-17T09:29:25.795Z,5
2016-09-17T09:30:25.819Z,5
2016-09-17T09:31:25.857Z,5
2016-09-17T09:32:25.880Z,5
2016-09-17T09:33:25.892Z,5
2016-09-17T09:34:25.910Z,5
2016-09-17T09:35:25.956Z,5
2016-09-17T09:36:25.962Z,5
2016-09-17T09:37:25.991Z,10
2016-09-17T09:38:26.017Z,10
2016-09-17T09:39:26.036Z,10
2016-09-17T09:40:26.061Z,10
2016-09-17T09:41:26.398Z,10
2016-09-17T09:42:26.113Z,10
2016-09-17T09:43:26.144Z,10
2016-09-17T09:44:26.159Z,10
2016-09-17T09:45:26.190Z,10
2016-09-17T09:46:26.424Z,5
2016-09-17T09:47:26.225Z,10
2016-09-17T09:48:26.264Z,5
2016-09-17T09:49:26.303Z,5
2016-09-17T09:50:26.621Z,5
2016-09-17T09:51:26.333Z,5
2016-09-17T09:52:26.349Z,5
2016-09-17T09:53:26.373Z,5
2016-09-17T09:54:26.398Z,5
2016-09-17T09:55:26.429Z,5
2016-09-17T09:56:26.454Z,5
2016-09-17T09:57:26.685Z,5
2016-09-17T09:58:26.511Z,5
2016-09-17T09:59:26.521Z,5
2016-09-17T10:00:26.591Z,0
2016-09-17T10:01:26.579Z,5
2016-09-17T10:02:26.599Z,0
2016-09-17T10:03:26.632Z,0
2016-09-17T10:04:26.645Z,0
2016-09-17T10:05:26.673Z,0
2016-09-17T10:06:26.691Z,0
2016-09-17T10:07:26.733Z,0
2016-09-17T10:08:26.735Z,0
2016-09-17T10:09:26.769Z,0
2016-09-17T10:10:26.792Z,0
2016-09-17T10:11:26.815Z,0
2016-09-17T10:12:27.153Z,5
2016-09-17T10:13:26.860Z,5
2016-09-17T10:14:26.891Z,5
2016-09-17T10:15:26.918Z,5
2016-09-17T10:16:26.948Z,5
2016-09-17T10:17:26.954Z,10
2016-09-17T10:18:27.006Z,10
2016-09-17T10:19:27.008Z,10
2016-09-17T10:20:27.034Z,10
2016-09-17T10:21:27.055Z,10
2016-09-17T10:22:27.081Z,10
2016-09-17T10:23:27.101Z,10
2016-09-17T10:24:27.130Z,10
2016-09-17T10:25:27.158Z,10
2016-09-17T10:26:27.183Z,10
2016-09-17T10:27:27.196Z,10
2016-09-17T10:28:27.227Z,10
2016-09-17T10:29:27.243Z,10
2016-09-17T10:30:27.276Z,10
2016-09-17T10:31:27.296Z,10
2016-09-17T10:32:27.323Z,10
2016-09-17T10:33:27.348Z,10
2016-09-17T10:34:27.387Z,10
2016-09-17T10:35:27.509Z,15
2016-09-17T10:36:27.546Z,15
2016-09-17T10:37:27.556Z,15
2016-09-17T10:38:27.559Z,15
2016-09-17T10:39:27.580Z,15
2016-09-17T10:40:27.606Z,15
2016-09-17T10:41:27.761Z,15
2016-09-17T10:42:27.665Z,15
2016-09-17T10:43:27.676Z,15
2016-09-17T10:44:27.829Z,15
2016-09-17T10:45:27.821Z,20
2016-09-17T10:46:27.836Z,20
2016-09-17T10:47:27.845Z,20
2016-09-17T10:48:27.853Z,20
2016-09-17T10:49:27.862Z,20
2016-09-17T10:50:27.857Z,20
2016-09-17T10:51:27.982Z,20
2016-09-17T10:52:27.883Z,20
2016-09-17T10:53:27.923Z,20
2016-09-17T10:54:27.948Z,20
2016-09-17T10:55:27.879Z,20
2016-09-17T10:56:27.907Z,20
2016-09-17T10:57:27.922Z,25
2016-09-17T10:58:27.953Z,15
2016-09-17T10:59:27.980Z,15
2016-09-17T11:00:28.016Z,10
2016-09-17T11:01:28.031Z,15
2016-09-17T11:02:28.061Z,25
2016-09-17T11:03:28.077Z,20
2016-09-17T11:04:28.412Z,10
2016-09-17T11:05:28.124Z,10
2016-09-17T11:06:28.141Z,10
2016-09-17T11:07:28.177Z,10
2016-09-17T11:08:28.199Z,5
2016-09-17T11:09:28.221Z,10
2016-09-17T11:10:28.247Z,10
2016-09-17T11:11:28.273Z,5
2016-09-17T11:12:28.294Z,5
2016-09-17T11:13:28.319Z,15
2016-09-17T11:14:28.661Z,20
2016-09-17T11:15:28.677Z,25
2016-09-17T11:16:28.402Z,20
2016-09-17T11:17:28.407Z,25
2016-09-17T11:18:28.441Z,25
2016-09-17T11:19:28.457Z,25
2016-09-17T11:20:28.487Z,25
2016-09-17T11:21:28.512Z,25
2016-09-17T11:22:28.536Z,25
2016-09-17T11:23:28.556Z,25
2016-09-17T11:24:28.592Z,25
2016-09-17T11:25:29.030Z,20
2016-09-17T11:26:28.626Z,20
2016-09-17T11:27:28.687Z,20
2016-09-17T11:28:28.678Z,20
2016-09-17T11:29:28.717Z,20
2016-09-17T11:30:28.725Z,20
2016-09-17T11:31:28.753Z,25
2016-09-17T11:32:28.962Z,25
2016-09-17T11:33:28.805Z,25
2016-09-17T11:34:28.825Z,30
2016-09-17T11:35:28.846Z,30
2016-09-17T11:36:28.983Z,30
2016-09-17T11:37:28.993Z,30
2016-09-17T11:38:29.025Z,25
2016-09-17T11:39:29.027Z,25
2016-09-17T11:40:29.032Z,20
2016-09-17T11:41:29.103Z,20
2016-09-17T11:42:29.111Z,20
2016-09-17T11:43:29.108Z,25
2016-09-17T11:44:29.118Z,20
2016-09-17T11:45:29.128Z,20
2016-09-17T11:46:29.138Z,25
2016-09-17T11:47:29.151Z,30
2016-09-17T11:48:29.260Z,30
2016-09-17T11:49:29.268Z,30
2016-09-17T11:50:29.303Z,25
2016-09-17T11:51:29.310Z,20
2016-09-17T11:52:29.318Z,20
2016-09-17T11:53:29.318Z,30
2016-09-17T11:54:29.318Z,35
2016-09-17T11:55:29.330Z,40
2016-09-17T11:56:29.364Z,30
2016-09-17T11:57:29.377Z,40
2016-09-17T11:58:29.411Z,40
2016-09-17T11:59:29.429Z,35
2016-09-17T12:00:29.460Z,35
2016-09-17T12:01:29.492Z,35
2016-09-17T12:02:29.504Z,25
2016-09-17T12:03:29.528Z,20
2016-09-17T12:04:29.561Z,15
2016-09-17T12:05:29.580Z,15
2016-09-17T12:06:29.599Z,15
2016-09-17T12:07:29.630Z,15
2016-09-17T12:08:29.669Z,15
2016-09-17T12:09:29.684Z,10
2016-09-17T12:10:29.708Z,10
2016-09-17T12:11:29.731Z,10
2016-09-17T12:12:29.751Z,10
2016-09-17T12:13:29.774Z,10
2016-09-17T12:14:29.812Z,15
2016-09-17T12:15:29.825Z,15
2016-09-17T12:16:29.854Z,10
2016-09-17T12:17:29.881Z,15
2016-09-17T12:18:29.901Z,15
2016-09-17T12:19:29.929Z,15
2016-09-17T12:20:29.954Z,15
2016-09-17T12:21:29.975Z,15
2016-09-17T12:22:30.002Z,15
2016-09-17T12:23:30.027Z,10
2016-09-17T12:24:30.046Z,20
2016-09-17T12:25:30.078Z,15
2016-09-17T12:26:30.102Z,15
2016-09-17T12:27:30.114Z,25
2016-09-17T12:28:30.152Z,30
2016-09-17T12:29:30.167Z,25
2016-09-17T12:30:30.194Z,35
2016-09-17T12:31:30.228Z,30
2016-09-17T12:32:30.244Z,40
2016-09-17T12:33:30.265Z,40
2016-09-17T12:34:30.293Z,40
2016-09-17T12:35:30.321Z,45
2016-09-17T12:36:30.349Z,45
2016-09-17T12:37:30.370Z,40
2016-09-17T12:38:30.391Z,35
2016-09-17T12:39:30.420Z,30
2016-09-17T12:40:30.439Z,30
2016-09-17T12:41:30.463Z,35
2016-09-17T12:42:30.494Z,25
2016-09-17T12:43:30.524Z,35
2016-09-17T12:44:30.541Z,20
2016-09-17T12:45:30.557Z,25
2016-09-17T12:46:30.590Z,20
2016-09-17T12:47:30.620Z,15
2016-09-17T12:48:30.637Z,20
2016-09-17T12:49:30.676Z,20
2016-09-17T12:50:30.686Z,20
2016-09-17T12:51:30.713Z,30
2016-09-17T12:52:30.742Z,25
2016-09-17T12:53:30.772Z,30
2016-09-17T12:54:30.791Z,30
2016-09-17T12:55:30.930Z,30
2016-09-17T12:56:30.937Z,35
2016-09-17T12:57:30.959Z,30
2016-09-17T12:58:31.088Z,15
2016-09-17T12:59:31.096Z,15
2016-09-17T13:00:31.105Z,30
2016-09-17T13:01:31.114Z,25
2016-09-17T13:02:31.111Z,20
2016-09-17T13:03:31.121Z,25
2016-09-17T13:04:31.128Z,25
2016-09-17T13:05:31.273Z,15
2016-09-17T13:06:31.282Z,15
2016-09-17T13:07:31.286Z,25
2016-09-17T13:08:31.294Z,20
2016-09-17T13:09:31.304Z,20
2016-09-17T13:10:31.250Z,20
2016-09-17T13:11:31.276Z,25
2016-09-17T13:12:31.282Z,15
2016-09-17T13:13:31.292Z,20
2016-09-17T13:14:31.298Z,30
2016-09-17T13:15:31.307Z,25
2016-09-17T13:16:31.331Z,25
2016-09-17T13:17:31.360Z,20
2016-09-17T13:18:31.382Z,35
2016-09-17T13:19:31.403Z,35
2016-09-17T13:20:31.425Z,25
2016-09-17T13:21:31.460Z,25
2016-09-17T13:22:31.479Z,15
2016-09-17T13:23:31.505Z,10
2016-09-17T13:24:31.852Z,10
2016-09-17T13:25:31.565Z,10
2016-09-17T13:26:31.589Z,15
2016-09-17T13:27:31.618Z,10
2016-09-17T13:28:31.631Z,15
2016-09-17T13:29:31.657Z,5
2016-09-17T13:30:31.687Z,10
2016-09-17T13:31:31.706Z,20
2016-09-17T13:32:31.733Z,10
2016-09-17T13:33:31.758Z,10
2016-09-17T13:34:31.782Z,10
2016-09-17T13:35:31.807Z,10
2016-09-17T13:36:31.840Z,10
2016-09-17T13:37:31.855Z,15
2016-09-17T13:38:31.883Z,15
2016-09-17T13:39:31.902Z,20
2016-09-17T13:40:31.934Z,15
2016-09-17T13:41:31.955Z,10
2016-09-17T13:42:31.975Z,10
2016-09-17T13:43:32.007Z,15
2016-09-17T13:44:32.026Z,15
2016-09-17T13:45:32.059Z,15
2016-09-17T13:46:32.103Z,15
2016-09-17T13:47:32.098Z,15
2016-09-17T13:48:32.128Z,15
2016-09-17T13:49:32.158Z,10
2016-09-17T13:50:32.198Z,15
2016-09-17T13:51:32.261Z,15
2016-09-17T13:52:32.251Z,10
2016-09-17T13:53:32.326Z,15
2016-09-17T13:54:32.337Z,10
2016-09-17T13:55:32.398Z,15
2016-09-17T13:56:32.388Z,10
2016-09-17T13:57:32.397Z,10
2016-09-17T13:58:32.448Z,10
2016-09-17T13:59:32.454Z,10
2016-09-17T14:00:32.442Z,10
2016-09-17T14:01:32.458Z,10
2016-09-17T14:02:32.865Z,10
2016-09-17T14:03:32.518Z,10
2016-09-17T14:04:32.522Z,5
2016-09-17T14:05:32.550Z,5
2016-09-17T14:06:32.599Z,10
2016-09-17T14:07:32.614Z,10
2016-09-17T14:08:32.636Z,10
2016-09-17T14:09:32.655Z,10
2016-09-17T14:10:32.689Z,10
2016-09-17T14:11:32.834Z,10
2016-09-17T14:12:32.845Z,5
2016-09-17T14:13:32.864Z,5
2016-09-17T14:14:33.167Z,5
2016-09-17T14:15:33.293Z,5
2016-09-17T14:16:32.849Z,5
2016-09-17T14:17:32.892Z,5
2016-09-17T14:18:32.883Z,10
2016-09-17T14:19:32.903Z,10
2016-09-17T14:20:32.942Z,5
2016-09-17T14:21:32.958Z,10
2016-09-17T14:22:32.974Z,10
2016-09-17T14:23:33.331Z,15
2016-09-17T14:24:33.021Z,20
2016-09-17T14:25:33.048Z,25
2016-09-17T14:26:33.082Z,25
2016-09-17T14:27:33.103Z,25
2016-09-17T14:28:33.130Z,25
2016-09-17T14:29:33.243Z,20
2016-09-17T14:30:33.180Z,20
2016-09-17T14:31:33.207Z,20
2016-09-17T14:32:33.222Z,20
2016-09-17T14:33:33.253Z,15
2016-09-17T14:34:33.275Z,15
2016-09-17T14:35:33.292Z,10
2016-09-17T14:36:33.327Z,10
2016-09-17T14:37:33.350Z,10